Terminal Aerodrome Forecast
Issued by NWS

Home | Current Version | Previous Version | Text Only | Print | Product List | Glossary On
Versions: 1 2 3 4 5 6 7 8 9 10 11 12 13 14 15
000
FTUS46 KLOX 260500
TAFWJF
TAF
KWJF 260533Z 2606/2706 03009KT P6SM OVC150
     FM260700 VRB05KT P6SM OVC150
     FM261900 VRB05KT P6SM VCSH BKN070 OVC120
     FM262300 04010KT P6SM -SHRA BKN050 OVC100
     FM270500 VRB05KT P6SM VCSH BKN080 OVC100=

USA.gov is the U.S. government's official web portal to all federal, state and local government web resources and services.